sensor_id;sensor_type;location;lat;lon;timestamp;pressure;altitude;pressure_sealevel;temperature;humidity
57462;BME280;43308;47.306;8.608;2024-01-30T00:00:12;96717.44;;;3.59;71.25
57462;BME280;43308;47.306;8.608;2024-01-30T00:02:38;96716.84;;;3.57;71.82
57462;BME280;43308;47.306;8.608;2024-01-30T00:05:04;96723.97;;;3.56;71.99
57462;BME280;43308;47.306;8.608;2024-01-30T00:07:30;96713.63;;;3.55;72.39
57462;BME280;43308;47.306;8.608;2024-01-30T00:09:56;96718.16;;;3.48;72.55
57462;BME280;43308;47.306;8.608;2024-01-30T00:12:21;96717.34;;;3.47;72.54
57462;BME280;43308;47.306;8.608;2024-01-30T00:14:47;96716.38;;;3.42;72.86
57462;BME280;43308;47.306;8.608;2024-01-30T00:17:14;96721.03;;;3.40;72.89
57462;BME280;43308;47.306;8.608;2024-01-30T00:19:40;96717.25;;;3.36;72.73
57462;BME280;43308;47.306;8.608;2024-01-30T00:22:06;96717.44;;;3.34;72.80
57462;BME280;43308;47.306;8.608;2024-01-30T00:24:33;96722.16;;;3.32;73.30
57462;BME280;43308;47.306;8.608;2024-01-30T00:26:59;96719.72;;;3.31;73.12
57462;BME280;43308;47.306;8.608;2024-01-30T00:29:25;96720.94;;;3.28;73.36
57462;BME280;43308;47.306;8.608;2024-01-30T00:31:55;96725.66;;;3.26;73.53
57462;BME280;43308;47.306;8.608;2024-01-30T00:34:23;96720.38;;;3.26;73.93
57462;BME280;43308;47.306;8.608;2024-01-30T00:36:49;96724.03;;;3.25;73.65
57462;BME280;43308;47.306;8.608;2024-01-30T00:39:15;96716.91;;;3.26;73.76
57462;BME280;43308;47.306;8.608;2024-01-30T00:41:42;96725.66;;;3.26;74.11
57462;BME280;43308;47.306;8.608;2024-01-30T00:44:08;96720.56;;;3.25;74.24
57462;BME280;43308;47.306;8.608;2024-01-30T00:46:33;96718.94;;;3.23;74.51
57462;BME280;43308;47.306;8.608;2024-01-30T00:48:59;96723.00;;;3.26;74.53
57462;BME280;43308;47.306;8.608;2024-01-30T00:51:25;96720.38;;;3.26;75.07
57462;BME280;43308;47.306;8.608;2024-01-30T00:53:51;96715.66;;;3.28;74.71
57462;BME280;43308;47.306;8.608;2024-01-30T00:56:19;96719.56;;;3.26;74.98
57462;BME280;43308;47.306;8.608;2024-01-30T00:58:45;96717.94;;;3.25;75.28
57462;BME280;43308;47.306;8.608;2024-01-30T01:01:11;96716.53;;;3.22;75.13
57462;BME280;43308;47.306;8.608;2024-01-30T01:03:37;96716.75;;;3.20;75.23
57462;BME280;43308;47.306;8.608;2024-01-30T01:06:06;96707.41;;;3.18;74.87
57462;BME280;43308;47.306;8.608;2024-01-30T01:08:32;96719.59;;;3.19;75.00
57462;BME280;43308;47.306;8.608;2024-01-30T01:10:58;96715.34;;;3.18;74.41
57462;BME280;43308;47.306;8.608;2024-01-30T01:13:24;96714.97;;;3.14;73.82
57462;BME280;43308;47.306;8.608;2024-01-30T01:15:50;96717.66;;;3.08;73.49
57462;BME280;43308;47.306;8.608;2024-01-30T01:18:16;96708.56;;;3.04;73.53
57462;BME280;43308;47.306;8.608;2024-01-30T01:20:42;96719.31;;;3.02;73.33
57462;BME280;43308;47.306;8.608;2024-01-30T01:23:08;96712.84;;;2.98;73.31
57462;BME280;43308;47.306;8.608;2024-01-30T01:25:34;96713.06;;;2.97;73.15
57462;BME280;43308;47.306;8.608;2024-01-30T01:28:00;96710.63;;;2.95;73.17
57462;BME280;43308;47.306;8.608;2024-01-30T01:30:27;96719.97;;;2.98;72.70
57462;BME280;43308;47.306;8.608;2024-01-30T01:32:54;96714.31;;;2.94;72.19
57462;BME280;43308;47.306;8.608;2024-01-30T01:35:23;96716.94;;;2.94;72.58
57462;BME280;43308;47.306;8.608;2024-01-30T01:37:51;96722.22;;;2.94;71.91
57462;BME280;43308;47.306;8.608;2024-01-30T01:40:25;96715.53;;;2.92;72.00
57462;BME280;43308;47.306;8.608;2024-01-30T01:42:52;96711.72;;;2.88;72.20
57462;BME280;43308;47.306;8.608;2024-01-30T01:45:20;96711.50;;;2.89;72.54
57462;BME280;43308;47.306;8.608;2024-01-30T01:47:52;96704.63;;;2.88;72.52
57462;BME280;43308;47.306;8.608;2024-01-30T01:50:20;96701.97;;;2.88;72.75
57462;BME280;43308;47.306;8.608;2024-01-30T01:52:50;96701.38;;;2.86;72.56
57462;BME280;43308;47.306;8.608;2024-01-30T01:55:17;96701.78;;;2.83;73.17
57462;BME280;43308;47.306;8.608;2024-01-30T01:57:44;96702.41;;;2.85;73.14
57462;BME280;43308;47.306;8.608;2024-01-30T02:00:12;96699.53;;;2.87;73.81
57462;BME280;43308;47.306;8.608;2024-01-30T02:02:38;96707.03;;;2.90;73.90
57462;BME280;43308;47.306;8.608;2024-01-30T02:05:05;96703.38;;;2.91;73.91
57462;BME280;43308;47.306;8.608;2024-01-30T02:07:31;96701.56;;;2.91;74.03
57462;BME280;43308;47.306;8.608;2024-01-30T02:09:57;96707.03;;;2.90;73.85
57462;BME280;43308;47.306;8.608;2024-01-30T02:12:22;96706.22;;;2.89;73.74
57462;BME280;43308;47.306;8.608;2024-01-30T02:14:48;96706.44;;;2.88;73.49
57462;BME280;43308;47.306;8.608;2024-01-30T02:17:15;96708.25;;;2.87;73.65
57462;BME280;43308;47.306;8.608;2024-01-30T02:19:41;96703.00;;;2.87;73.67
57462;BME280;43308;47.306;8.608;2024-01-30T02:22:07;96704.22;;;2.85;73.61
57462;BME280;43308;47.306;8.608;2024-01-30T02:24:33;96712.94;;;2.85;73.50
57462;BME280;43308;47.306;8.608;2024-01-30T02:26:59;96707.88;;;2.84;73.73
57462;BME280;43308;47.306;8.608;2024-01-30T02:29:25;96702.22;;;2.80;73.22
57462;BME280;43308;47.306;8.608;2024-01-30T02:31:51;96704.47;;;2.77;73.04
57462;BME280;43308;47.306;8.608;2024-01-30T02:34:18;96707.09;;;2.77;72.96
57462;BME280;43308;47.306;8.608;2024-01-30T02:36:45;96711.22;;;2.73;73.08
57462;BME280;43308;47.306;8.608;2024-01-30T02:39:11;96704.09;;;2.73;73.09
57462;BME280;43308;47.306;8.608;2024-01-30T02:41:37;96714.03;;;2.71;72.86
57462;BME280;43308;47.306;8.608;2024-01-30T02:44:03;96717.69;;;2.70;73.07
57462;BME280;43308;47.306;8.608;2024-01-30T02:46:29;96711.25;;;2.66;73.22
57462;BME280;43308;47.306;8.608;2024-01-30T02:48:55;96712.03;;;2.66;73.53
57462;BME280;43308;47.306;8.608;2024-01-30T02:51:21;96710.22;;;2.67;73.52
57462;BME280;43308;47.306;8.608;2024-01-30T02:53:49;96703.75;;;2.63;73.36
57462;BME280;43308;47.306;8.608;2024-01-30T02:56:15;96707.78;;;2.65;73.06
57462;BME280;43308;47.306;8.608;2024-01-30T02:58:40;96700.50;;;2.61;73.01
57462;BME280;43308;47.306;8.608;2024-01-30T03:01:07;96701.56;;;2.60;72.80
57462;BME280;43308;47.306;8.608;2024-01-30T03:03:33;96701.16;;;2.56;72.37
57462;BME280;43308;47.306;8.608;2024-01-30T03:06:00;96689.41;;;2.52;72.46
57462;BME280;43308;47.306;8.608;2024-01-30T03:08:26;96694.88;;;2.51;72.16
57462;BME280;43308;47.306;8.608;2024-01-30T03:10:52;96697.75;;;2.49;72.30
57462;BME280;43308;47.306;8.608;2024-01-30T03:13:18;96695.09;;;2.49;71.90
57462;BME280;43308;47.306;8.608;2024-01-30T03:15:44;96689.25;;;2.47;72.24
57462;BME280;43308;47.306;8.608;2024-01-30T03:18:09;96688.44;;;2.47;72.69
57462;BME280;43308;47.306;8.608;2024-01-30T03:20:35;96693.09;;;2.45;72.70
57462;BME280;43308;47.306;8.608;2024-01-30T03:23:01;96691.88;;;2.47;73.54
57462;BME280;43308;47.306;8.608;2024-01-30T03:25:27;96692.66;;;2.48;73.78
57462;BME280;43308;47.306;8.608;2024-01-30T03:27:53;96697.91;;;2.54;74.21
57462;BME280;43308;47.306;8.608;2024-01-30T03:30:19;96696.09;;;2.55;74.43
57462;BME280;43308;47.306;8.608;2024-01-30T03:32:45;96694.47;;;2.54;74.22
57462;BME280;43308;47.306;8.608;2024-01-30T03:35:11;96696.50;;;2.52;74.37
57462;BME280;43308;47.306;8.608;2024-01-30T03:37:37;96689.63;;;2.51;74.07
57462;BME280;43308;47.306;8.608;2024-01-30T03:40:03;96686.19;;;2.50;73.82
57462;BME280;43308;47.306;8.608;2024-01-30T03:42:29;96680.72;;;2.45;73.63
57462;BME280;43308;47.306;8.608;2024-01-30T03:44:56;96690.66;;;2.50;73.87
57462;BME280;43308;47.306;8.608;2024-01-30T03:47:22;96680.31;;;2.48;74.10
57462;BME280;43308;47.306;8.608;2024-01-30T03:49:48;96693.88;;;2.52;74.41
57462;BME280;43308;47.306;8.608;2024-01-30T03:52:14;96683.34;;;2.52;74.28
57462;BME280;43308;47.306;8.608;2024-01-30T03:54:40;96685.38;;;2.50;74.43
57462;BME280;43308;47.306;8.608;2024-01-30T03:57:06;96685.81;;;2.47;74.61
57462;BME280;43308;47.306;8.608;2024-01-30T03:59:32;96689.44;;;2.46;74.04
57462;BME280;43308;47.306;8.608;2024-01-30T04:01:58;96695.72;;;2.45;74.20
57462;BME280;43308;47.306;8.608;2024-01-30T04:04:24;96685.19;;;2.45;74.16
57462;BME280;43308;47.306;8.608;2024-01-30T04:06:49;96684.38;;;2.44;74.60
57462;BME280;43308;47.306;8.608;2024-01-30T04:09:15;96685.00;;;2.46;74.97
57462;BME280;43308;47.306;8.608;2024-01-30T04:11:41;96687.81;;;2.45;74.39
57462;BME280;43308;47.306;8.608;2024-01-30T04:14:08;96681.97;;;2.43;74.40
57462;BME280;43308;47.306;8.608;2024-01-30T04:16:34;96689.47;;;2.39;74.04
57462;BME280;43308;47.306;8.608;2024-01-30T04:19:00;96689.91;;;2.36;73.57
57462;BME280;43308;47.306;8.608;2024-01-30T04:21:26;96689.91;;;2.36;73.48
57462;BME280;43308;47.306;8.608;2024-01-30T04:23:53;96690.09;;;2.35;73.58
57462;BME280;43308;47.306;8.608;2024-01-30T04:26:21;96691.94;;;2.34;73.23
57462;BME280;43308;47.306;8.608;2024-01-30T04:28:47;96690.31;;;2.33;73.61
57462;BME280;43308;47.306;8.608;2024-01-30T04:31:13;96683.44;;;2.32;73.97
57462;BME280;43308;47.306;8.608;2024-01-30T04:33:39;96689.50;;;2.33;74.04
57462;BME280;43308;47.306;8.608;2024-01-30T04:36:08;96685.25;;;2.32;74.29
57462;BME280;43308;47.306;8.608;2024-01-30T04:38:36;96677.34;;;2.32;74.40
57462;BME280;43308;47.306;8.608;2024-01-30T04:41:02;96689.75;;;2.31;75.06
57462;BME280;43308;47.306;8.608;2024-01-30T04:43:28;96686.72;;;2.28;75.60
57462;BME280;43308;47.306;8.608;2024-01-30T04:45:53;96688.72;;;2.26;75.49
57462;BME280;43308;47.306;8.608;2024-01-30T04:48:19;96689.38;;;2.21;76.10
57462;BME280;43308;47.306;8.608;2024-01-30T04:50:47;96685.94;;;2.21;76.36
57462;BME280;43308;47.306;8.608;2024-01-30T04:53:14;96689.97;;;2.23;77.22
57462;BME280;43308;47.306;8.608;2024-01-30T04:55:40;96691.78;;;2.23;77.05
57462;BME280;43308;47.306;8.608;2024-01-30T04:58:06;96694.66;;;2.21;77.24
57462;BME280;43308;47.306;8.608;2024-01-30T05:00:31;96695.06;;;2.18;77.15
57462;BME280;43308;47.306;8.608;2024-01-30T05:02:58;96689.41;;;2.14;76.97
57462;BME280;43308;47.306;8.608;2024-01-30T05:05:23;96687.59;;;2.08;76.99
57462;BME280;43308;47.306;8.608;2024-01-30T05:07:49;96694.88;;;2.06;76.95
57462;BME280;43308;47.306;8.608;2024-01-30T05:10:15;96698.56;;;2.05;76.94
57462;BME280;43308;47.306;8.608;2024-01-30T05:12:41;96706.66;;;2.04;77.15
57462;BME280;43308;47.306;8.608;2024-01-30T05:15:07;96709.69;;;2.01;76.73
57462;BME280;43308;47.306;8.608;2024-01-30T05:17:33;96704.84;;;1.98;76.67
57462;BME280;43308;47.306;8.608;2024-01-30T05:19:59;96705.06;;;1.96;76.61
57462;BME280;43308;47.306;8.608;2024-01-30T05:22:25;96713.38;;;1.93;76.62
57462;BME280;43308;47.306;8.608;2024-01-30T05:24:50;96710.75;;;1.93;76.71
57462;BME280;43308;47.306;8.608;2024-01-30T05:27:16;96707.50;;;1.91;77.02
57462;BME280;43308;47.306;8.608;2024-01-30T05:29:42;96708.72;;;1.95;77.03
57462;BME280;43308;47.306;8.608;2024-01-30T05:32:08;96711.13;;;1.97;77.77
57462;BME280;43308;47.306;8.608;2024-01-30T05:34:35;96711.75;;;1.99;77.53
57462;BME280;43308;47.306;8.608;2024-01-30T05:37:01;96713.56;;;1.98;77.83
57462;BME280;43308;47.306;8.608;2024-01-30T05:39:27;96718.41;;;2.01;77.56
57462;BME280;43308;47.306;8.608;2024-01-30T05:41:53;96719.41;;;2.00;77.48
57462;BME280;43308;47.306;8.608;2024-01-30T05:44:18;96729.97;;;2.00;77.60
57462;BME280;43308;47.306;8.608;2024-01-30T05:46:45;96713.38;;;1.93;77.27
57462;BME280;43308;47.306;8.608;2024-01-30T05:49:11;96720.66;;;1.98;77.69
57462;BME280;43308;47.306;8.608;2024-01-30T05:51:37;96716.19;;;1.98;77.62
57462;BME280;43308;47.306;8.608;2024-01-30T05:54:03;96718.03;;;1.98;77.55
57462;BME280;43308;47.306;8.608;2024-01-30T05:56:30;96709.31;;;1.97;77.76
57462;BME280;43308;47.306;8.608;2024-01-30T05:58:56;96721.88;;;2.02;77.52
57462;BME280;43308;47.306;8.608;2024-01-30T06:01:22;96726.13;;;2.03;77.80
57462;BME280;43308;47.306;8.608;2024-01-30T06:03:48;96727.13;;;2.02;77.76
57462;BME280;43308;47.306;8.608;2024-01-30T06:06:14;96735.03;;;2.02;77.33
57462;BME280;43308;47.306;8.608;2024-01-30T06:08:40;96732.59;;;2.00;77.52
57462;BME280;43308;47.306;8.608;2024-01-30T06:11:05;96724.91;;;1.99;77.35
57462;BME280;43308;47.306;8.608;2024-01-30T06:13:31;96736.84;;;2.01;77.13
57462;BME280;43308;47.306;8.608;2024-01-30T06:16:00;96736.84;;;2.01;77.01
57462;BME280;43308;47.306;8.608;2024-01-30T06:18:26;96740.88;;;2.04;76.93
57462;BME280;43308;47.306;8.608;2024-01-30T06:20:52;96741.13;;;2.02;76.88
57462;BME280;43308;47.306;8.608;2024-01-30T06:23:18;96745.56;;;2.02;76.81
57462;BME280;43308;47.306;8.608;2024-01-30T06:25:48;96738.66;;;2.01;76.71
57462;BME280;43308;47.306;8.608;2024-01-30T06:28:14;96741.53;;;1.99;76.80
57462;BME280;43308;47.306;8.608;2024-01-30T06:30:39;96742.94;;;2.02;76.63
57462;BME280;43308;47.306;8.608;2024-01-30T06:33:05;96735.22;;;2.00;76.74
57462;BME280;43308;47.306;8.608;2024-01-30T06:35:31;96736.84;;;2.01;76.99
57462;BME280;43308;47.306;8.608;2024-01-30T06:37:57;96737.66;;;2.02;76.97
57462;BME280;43308;47.306;8.608;2024-01-30T06:40:23;96748.78;;;2.04;76.86
57462;BME280;43308;47.306;8.608;2024-01-30T06:42:49;96751.66;;;2.02;76.98
57462;BME280;43308;47.306;8.608;2024-01-30T06:45:15;96751.66;;;2.02;77.59
57462;BME280;43308;47.306;8.608;2024-01-30T06:47:41;96755.09;;;2.03;77.27
57462;BME280;43308;47.306;8.608;2024-01-30T06:50:07;96755.28;;;2.01;77.41
57462;BME280;43308;47.306;8.608;2024-01-30T06:52:33;96751.03;;;2.00;77.69
57462;BME280;43308;47.306;8.608;2024-01-30T06:54:59;96753.47;;;2.02;77.85
57462;BME280;43308;47.306;8.608;2024-01-30T06:57:25;96758.72;;;2.02;78.11
57462;BME280;43308;47.306;8.608;2024-01-30T06:59:52;96761.16;;;2.03;78.18
57462;BME280;43308;47.306;8.608;2024-01-30T07:02:18;96754.06;;;2.04;78.02
57462;BME280;43308;47.306;8.608;2024-01-30T07:04:44;96757.31;;;2.06;78.20
57462;BME280;43308;47.306;8.608;2024-01-30T07:07:10;96758.09;;;2.06;78.11
57462;BME280;43308;47.306;8.608;2024-01-30T07:09:38;96757.09;;;2.07;78.07
57462;BME280;43308;47.306;8.608;2024-01-30T07:12:04;96760.31;;;2.09;77.95
57462;BME280;43308;47.306;8.608;2024-01-30T07:14:32;96766.22;;;2.11;78.17
57462;BME280;43308;47.306;8.608;2024-01-30T07:16:58;96767.03;;;2.12;77.92
57462;BME280;43308;47.306;8.608;2024-01-30T07:19:24;96772.69;;;2.16;77.79
57462;BME280;43308;47.306;8.608;2024-01-30T07:21:50;96764.56;;;2.17;77.92
57462;BME280;43308;47.306;8.608;2024-01-30T07:24:15;96763.56;;;2.18;77.82
57462;BME280;43308;47.306;8.608;2024-01-30T07:26:41;96773.69;;;2.21;77.66
57462;BME280;43308;47.306;8.608;2024-01-30T07:29:07;96772.44;;;2.24;77.62
57462;BME280;43308;47.306;8.608;2024-01-30T07:31:33;96769.63;;;2.25;77.61
57462;BME280;43308;47.306;8.608;2024-01-30T07:34:00;96770.63;;;2.24;77.64
57462;BME280;43308;47.306;8.608;2024-01-30T07:36:26;96776.28;;;2.28;77.53
57462;BME280;43308;47.306;8.608;2024-01-30T07:38:52;96772.19;;;2.32;77.43
57462;BME280;43308;47.306;8.608;2024-01-30T07:41:19;96774.22;;;2.36;77.53
57462;BME280;43308;47.306;8.608;2024-01-30T07:43:45;96774.63;;;2.40;77.46
57462;BME280;43308;47.306;8.608;2024-01-30T07:46:11;96781.31;;;2.42;77.52
57462;BME280;43308;47.306;8.608;2024-01-30T07:48:37;96774.78;;;2.45;77.44
57462;BME280;43308;47.306;8.608;2024-01-30T07:51:03;96778.63;;;2.49;77.27
57462;BME280;43308;47.306;8.608;2024-01-30T07:53:29;96784.31;;;2.52;77.07
57462;BME280;43308;47.306;8.608;2024-01-30T07:55:55;96784.91;;;2.54;77.25
57462;BME280;43308;47.306;8.608;2024-01-30T07:58:21;96786.53;;;2.55;77.31
57462;BME280;43308;47.306;8.608;2024-01-30T08:00:47;96788.53;;;2.60;76.95
57462;BME280;43308;47.306;8.608;2024-01-30T08:03:13;96787.50;;;2.61;77.18
57462;BME280;43308;47.306;8.608;2024-01-30T08:05:41;96785.50;;;2.63;77.21
57462;BME280;43308;47.306;8.608;2024-01-30T08:08:07;96788.72;;;2.65;77.16
57462;BME280;43308;47.306;8.608;2024-01-30T08:10:33;96790.13;;;2.67;77.29
57462;BME280;43308;47.306;8.608;2024-01-30T08:12:59;96775.69;;;2.70;76.82
57462;BME280;43308;47.306;8.608;2024-01-30T08:15:25;96777.72;;;2.75;76.99
57462;BME280;43308;47.306;8.608;2024-01-30T08:17:50;96782.75;;;2.76;76.74
57462;BME280;43308;47.306;8.608;2024-01-30T08:20:21;96789.03;;;2.82;77.08
57462;BME280;43308;47.306;8.608;2024-01-30T08:22:48;96782.31;;;2.86;76.87
57462;BME280;43308;47.306;8.608;2024-01-30T08:25:14;96790.59;;;2.89;77.03
57462;BME280;43308;47.306;8.608;2024-01-30T08:27:39;96801.34;;;2.94;76.77
57462;BME280;43308;47.306;8.608;2024-01-30T08:30:06;96801.53;;;2.99;76.91
57462;BME280;43308;47.306;8.608;2024-01-30T08:32:33;96796.81;;;3.01;77.63
57462;BME280;43308;47.306;8.608;2024-01-30T08:34:59;96803.09;;;3.07;77.96
57462;BME280;43308;47.306;8.608;2024-01-30T08:37:25;96797.41;;;3.10;77.92
57462;BME280;43308;47.306;8.608;2024-01-30T08:39:51;96799.19;;;3.16;78.20
57462;BME280;43308;47.306;8.608;2024-01-30T08:42:17;96799.16;;;3.22;78.02
57462;BME280;43308;47.306;8.608;2024-01-30T08:44:50;96804.16;;;3.31;77.89
57462;BME280;43308;47.306;8.608;2024-01-30T08:47:18;96797.00;;;3.38;78.10
57462;BME280;43308;47.306;8.608;2024-01-30T08:49:44;96800.81;;;3.48;77.83
57462;BME280;43308;47.306;8.608;2024-01-30T08:52:11;96796.88;;;3.57;78.03
57462;BME280;43308;47.306;8.608;2024-01-30T08:54:36;96795.56;;;3.66;77.73
57462;BME280;43308;47.306;8.608;2024-01-30T08:57:02;96793.03;;;3.78;77.72
57462;BME280;43308;47.306;8.608;2024-01-30T08:59:29;96802.09;;;3.89;77.21
57462;BME280;43308;47.306;8.608;2024-01-30T09:01:55;96798.56;;;3.95;76.45
57462;BME280;43308;47.306;8.608;2024-01-30T09:04:23;96807.47;;;4.00;76.86
57462;BME280;43308;47.306;8.608;2024-01-30T09:06:49;96803.94;;;4.06;76.58
57462;BME280;43308;47.306;8.608;2024-01-30T09:09:16;96804.31;;;4.10;76.88
57462;BME280;43308;47.306;8.608;2024-01-30T09:11:42;96801.03;;;4.14;76.89
57462;BME280;43308;47.306;8.608;2024-01-30T09:14:07;96795.88;;;4.19;76.50
57462;BME280;43308;47.306;8.608;2024-01-30T09:16:33;96804.56;;;4.26;76.67
57462;BME280;43308;47.306;8.608;2024-01-30T09:18:59;96799.41;;;4.32;76.38
57462;BME280;43308;47.306;8.608;2024-01-30T09:21:25;96804.44;;;4.40;76.16
57462;BME280;43308;47.306;8.608;2024-01-30T09:24:01;96801.78;;;4.40;75.86
57462;BME280;43308;47.306;8.608;2024-01-30T09:26:27;96803.63;;;4.39;75.97
57462;BME280;43308;47.306;8.608;2024-01-30T09:28:53;96807.66;;;4.42;75.80
57462;BME280;43308;47.306;8.608;2024-01-30T09:31:22;96798.81;;;4.48;76.27
57462;BME280;43308;47.306;8.608;2024-01-30T09:33:47;96799.00;;;4.53;76.21
57462;BME280;43308;47.306;8.608;2024-01-30T09:36:14;96806.63;;;4.61;75.94
57462;BME280;43308;47.306;8.608;2024-01-30T09:38:46;96799.19;;;4.69;75.92
57462;BME280;43308;47.306;8.608;2024-01-30T09:41:12;96807.56;;;4.85;75.67
57462;BME280;43308;47.306;8.608;2024-01-30T09:43:39;96796.22;;;4.96;75.35
57462;BME280;43308;47.306;8.608;2024-01-30T09:46:05;96803.03;;;5.03;75.29
57462;BME280;43308;47.306;8.608;2024-01-30T09:48:34;96802.50;;;5.13;75.26
57462;BME280;43308;47.306;8.608;2024-01-30T09:51:00;96799.88;;;5.24;75.12
57462;BME280;43308;47.306;8.608;2024-01-30T09:53:27;96801.97;;;5.34;74.39
57462;BME280;43308;47.306;8.608;2024-01-30T09:55:53;96791.88;;;5.43;73.68
57462;BME280;43308;47.306;8.608;2024-01-30T09:58:19;96802.25;;;5.56;73.25
57462;BME280;43308;47.306;8.608;2024-01-30T10:00:45;96800.69;;;5.66;72.58
57462;BME280;43308;47.306;8.608;2024-01-30T10:03:11;96807.38;;;5.80;72.03
57462;BME280;43308;47.306;8.608;2024-01-30T10:05:40;96801.53;;;5.90;72.70
57462;BME280;43308;47.306;8.608;2024-01-30T10:08:07;96801.91;;;6.05;72.37
57462;BME280;43308;47.306;8.608;2024-01-30T10:10:35;96801.22;;;6.21;71.48
57462;BME280;43308;47.306;8.608;2024-01-30T10:13:01;96806.25;;;6.34;70.94
57462;BME280;43308;47.306;8.608;2024-01-30T10:15:28;96807.53;;;6.44;70.88
57462;BME280;43308;47.306;8.608;2024-01-30T10:17:55;96808.19;;;6.51;70.78
57462;BME280;43308;47.306;8.608;2024-01-30T10:20:20;96809.69;;;6.58;69.75
57462;BME280;43308;47.306;8.608;2024-01-30T10:22:49;96805.28;;;6.64;69.15
57462;BME280;43308;47.306;8.608;2024-01-30T10:25:17;96806.66;;;6.66;69.16
57462;BME280;43308;47.306;8.608;2024-01-30T10:27:42;96806.66;;;6.66;69.21
57462;BME280;43308;47.306;8.608;2024-01-30T10:30:10;96799.97;;;6.64;69.37
57462;BME280;43308;47.306;8.608;2024-01-30T10:32:36;96803.09;;;6.61;69.06
57462;BME280;43308;47.306;8.608;2024-01-30T10:35:02;96800.56;;;6.66;69.34
57462;BME280;43308;47.306;8.608;2024-01-30T10:37:29;96802.47;;;6.82;69.86
57462;BME280;43308;47.306;8.608;2024-01-30T10:40:01;96792.16;;;6.97;69.88
57462;BME280;43308;47.306;8.608;2024-01-30T10:42:31;96797.50;;;7.14;68.81
57462;BME280;43308;47.306;8.608;2024-01-30T10:45:06;96788.56;;;7.31;67.79
57462;BME280;43308;47.306;8.608;2024-01-30T10:47:35;96791.47;;;7.46;68.06
57462;BME280;43308;47.306;8.608;2024-01-30T10:50:05;96787.69;;;7.59;67.47
57462;BME280;43308;47.306;8.608;2024-01-30T10:52:33;96782.31;;;7.71;67.11
57462;BME280;43308;47.306;8.608;2024-01-30T10:54:59;96779.25;;;7.95;65.82
57462;BME280;43308;47.306;8.608;2024-01-30T10:57:26;96781.38;;;8.15;65.70
57462;BME280;43308;47.306;8.608;2024-01-30T10:59:57;96780.19;;;8.39;65.06
57462;BME280;43308;47.306;8.608;2024-01-30T11:02:24;96766.34;;;8.59;63.92
57462;BME280;43308;47.306;8.608;2024-01-30T11:04:56;96768.09;;;8.75;63.86
57462;BME280;43308;47.306;8.608;2024-01-30T11:07:26;96764.56;;;8.91;63.63
57462;BME280;43308;47.306;8.608;2024-01-30T11:09:59;96767.97;;;9.08;63.56
57462;BME280;43308;47.306;8.608;2024-01-30T11:12:29;96767.28;;;9.18;61.92
57462;BME280;43308;47.306;8.608;2024-01-30T11:15:06;96770.47;;;9.20;61.68
57462;BME280;43308;47.306;8.608;2024-01-30T11:20:30;96769.19;;;9.23;62.12
57462;BME280;43308;47.306;8.608;2024-01-30T11:23:01;96763.19;;;9.37;61.96
57462;BME280;43308;47.306;8.608;2024-01-30T11:25:32;96754.28;;;9.53;62.06
57462;BME280;43308;47.306;8.608;2024-01-30T11:27:58;96749.34;;;9.67;61.67
57462;BME280;43308;47.306;8.608;2024-01-30T11:30:26;96750.78;;;9.80;60.44
57462;BME280;43308;47.306;8.608;2024-01-30T11:35:37;96749.59;;;10.02;58.95
57462;BME280;43308;47.306;8.608;2024-01-30T11:38:05;96739.31;;;10.16;59.00
57462;BME280;43308;47.306;8.608;2024-01-30T11:40:32;96747.38;;;10.26;59.29
57462;BME280;43308;47.306;8.608;2024-01-30T11:43:00;96735.94;;;10.36;59.14
57462;BME280;43308;47.306;8.608;2024-01-30T11:45:27;96734.41;;;10.50;59.46
57462;BME280;43308;47.306;8.608;2024-01-30T11:47:54;96742.78;;;10.74;57.05
57462;BME280;43308;47.306;8.608;2024-01-30T11:50:20;96733.50;;;10.81;57.65
57462;BME280;43308;47.306;8.608;2024-01-30T11:52:46;96736.97;;;10.87;57.48
57462;BME280;43308;47.306;8.608;2024-01-30T11:55:14;96730.53;;;10.83;57.87
57462;BME280;43308;47.306;8.608;2024-01-30T11:57:41;96744.66;;;10.68;57.71
57462;BME280;43308;47.306;8.608;2024-01-30T12:00:15;96734.16;;;10.56;57.60
57462;BME280;43308;47.306;8.608;2024-01-30T12:02:42;96737.59;;;10.47;58.44
57462;BME280;43308;47.306;8.608;2024-01-30T12:05:08;96731.19;;;10.43;58.82
57462;BME280;43308;47.306;8.608;2024-01-30T12:07:35;96732.53;;;10.50;58.62
57462;BME280;43308;47.306;8.608;2024-01-30T12:10:01;96730.22;;;10.64;58.62
57462;BME280;43308;47.306;8.608;2024-01-30T12:12:28;96721.19;;;10.85;57.33
57462;BME280;43308;47.306;8.608;2024-01-30T12:14:55;96712.97;;;11.07;56.06
57462;BME280;43308;47.306;8.608;2024-01-30T12:17:31;96722.09;;;11.26;55.60
57462;BME280;43308;47.306;8.608;2024-01-30T12:20:17;96714.09;;;11.46;53.70
57462;BME280;43308;47.306;8.608;2024-01-30T12:22:46;96718.13;;;11.69;51.04
57462;BME280;43308;47.306;8.608;2024-01-30T12:25:18;96710.91;;;11.95;52.94
57462;BME280;43308;47.306;8.608;2024-01-30T12:27:48;96715.44;;;12.04;53.54
57462;BME280;43308;47.306;8.608;2024-01-30T12:30:20;96713.00;;;12.23;52.78
57462;BME280;43308;47.306;8.608;2024-01-30T12:32:49;96715.34;;;12.35;52.26
57462;BME280;43308;47.306;8.608;2024-01-30T12:35:19;96711.84;;;12.49;51.41
57462;BME280;43308;47.306;8.608;2024-01-30T12:38:02;96708.81;;;12.66;48.03
57462;BME280;43308;47.306;8.608;2024-01-30T12:40:28;96697.72;;;12.88;46.58
57462;BME280;43308;47.306;8.608;2024-01-30T12:42:54;96693.34;;;13.12;45.08
57462;BME280;43308;47.306;8.608;2024-01-30T12:45:20;96691.31;;;13.32;44.39
57462;BME280;43308;47.306;8.608;2024-01-30T12:47:48;96693.56;;;13.54;43.38
57462;BME280;43308;47.306;8.608;2024-01-30T12:50:14;96692.53;;;13.50;46.12
57462;BME280;43308;47.306;8.608;2024-01-30T12:52:44;96693.38;;;13.46;48.06
57462;BME280;43308;47.306;8.608;2024-01-30T12:55:11;96699.09;;;13.34;48.51
57462;BME280;43308;47.306;8.608;2024-01-30T12:57:36;96702.97;;;13.13;49.35
57462;BME280;43308;47.306;8.608;2024-01-30T13:00:05;96699.53;;;13.02;49.20
57462;BME280;43308;47.306;8.608;2024-01-30T13:02:34;96701.16;;;12.98;50.21
57462;BME280;43308;47.306;8.608;2024-01-30T13:05:03;96713.75;;;12.98;50.55
57462;BME280;43308;47.306;8.608;2024-01-30T13:07:29;96705.22;;;12.91;50.56
57462;BME280;43308;47.306;8.608;2024-01-30T13:09:56;96706.88;;;12.82;51.02
57462;BME280;43308;47.306;8.608;2024-01-30T13:12:27;96715.41;;;12.94;51.43